createdAt,value
2023-01-17T00:02:17.938Z,39.40
2023-01-17T00:05:04.069Z,36.10
2023-01-17T00:07:50.254Z,35.00
2023-01-17T00:10:19.082Z,34.70
2023-01-17T00:12:52.311Z,34.00
2023-01-17T00:15:21.072Z,33.90
2023-01-17T00:17:49.141Z,32.70
2023-01-17T00:20:41.409Z,30.50
2023-01-17T00:23:38.945Z,28.50
2023-01-17T00:26:18.378Z,25.70
2023-01-17T00:28:46.201Z,24.20
2023-01-17T00:31:14.957Z,42.20
2023-01-17T00:33:42.321Z,27.70
2023-01-17T00:36:10.366Z,28.10
2023-01-17T00:38:39.349Z,30.50
2023-01-17T00:41:12.355Z,30.00
2023-01-17T00:43:58.864Z,30.40
2023-01-17T00:46:45.253Z,30.00
2023-01-17T00:49:30.924Z,29.10
2023-01-17T00:52:16.633Z,28.50
2023-01-17T00:55:02.402Z,29.90
2023-01-17T00:57:48.178Z,30.00
2023-01-17T01:00:35.628Z,48.10
2023-01-17T01:03:28.254Z,29.90
2023-01-17T01:06:14.164Z,29.60
2023-01-17T01:08:59.887Z,28.30
2023-01-17T01:11:45.822Z,31.10
2023-01-17T01:14:31.436Z,34.40
2023-01-17T01:17:16.980Z,38.20
2023-01-17T01:20:02.825Z,38.50
2023-01-17T01:22:48.496Z,38.70
2023-01-17T01:25:34.234Z,38.20
2023-01-17T01:28:25.271Z,37.10
2023-01-17T01:31:11.185Z,38.30
2023-01-17T01:33:38.564Z,37.50
2023-01-17T01:36:08.493Z,34.10
2023-01-17T01:38:35.670Z,31.70
2023-01-17T01:41:02.837Z,26.60
2023-01-17T01:43:44.134Z,37.70
2023-01-17T01:46:17.115Z,21.60
2023-01-17T01:49:02.681Z,23.70
2023-01-17T01:51:52.639Z,23.80
2023-01-17T01:54:25.626Z,25.90
2023-01-17T01:56:54.657Z,27.70
2023-01-17T01:59:23.059Z,25.20
2023-01-17T02:01:52.487Z,21.70
2023-01-17T02:04:21.393Z,20.10
2023-01-17T02:06:58.310Z,20.80
2023-01-17T02:09:25.516Z,22.70
2023-01-17T02:11:52.702Z,24.00
2023-01-17T02:14:21.611Z,24.60
2023-01-17T02:17:19.926Z,26.60
2023-01-17T02:19:59.140Z,28.10
2023-01-17T02:22:44.313Z,30.80
2023-01-17T02:25:17.330Z,34.60
2023-01-17T02:28:15.648Z,36.30
2023-01-17T02:30:51.262Z,35.70
2023-01-17T02:33:50.476Z,33.80
2023-01-17T02:36:32.959Z,35.80
2023-01-17T02:39:08.028Z,33.90
2023-01-17T02:41:39.250Z,33.60
2023-01-17T02:44:10.129Z,36.00
2023-01-17T02:46:54.976Z,36.10
2023-01-17T02:49:27.255Z,55.50
2023-01-17T02:52:15.693Z,36.70
2023-01-17T02:55:09.338Z,40.00
2023-01-17T02:57:54.998Z,38.80
2023-01-17T03:00:27.509Z,37.60
2023-01-17T03:03:11.327Z,39.80
2023-01-17T03:05:54.257Z,39.00
2023-01-17T03:08:22.526Z,39.80
2023-01-17T03:10:50.074Z,36.00
2023-01-17T03:13:17.285Z,33.60
2023-01-17T03:15:45.260Z,34.80
2023-01-17T03:18:16.265Z,32.10
2023-01-17T03:20:43.426Z,31.30
2023-01-17T03:23:10.733Z,30.60
2023-01-17T03:25:37.902Z,29.30
2023-01-17T03:28:05.274Z,29.00
2023-01-17T03:30:32.612Z,29.50
2023-01-17T03:32:59.807Z,32.20
2023-01-17T03:35:28.388Z,34.00
2023-01-17T03:37:56.698Z,37.10
2023-01-17T03:40:23.890Z,35.30
2023-01-17T03:42:51.145Z,34.90
2023-01-17T03:45:18.299Z,35.20
2023-01-17T03:47:45.778Z,34.60
2023-01-17T03:50:13.585Z,38.50
2023-01-17T03:52:40.757Z,34.70
2023-01-17T03:55:08.365Z,34.70
2023-01-17T03:57:35.600Z,34.60
2023-01-17T04:00:02.825Z,36.90
2023-01-17T04:02:29.943Z,44.40
2023-01-17T04:04:57.223Z,46.00
2023-01-17T04:07:24.371Z,46.20
2023-01-17T04:09:51.606Z,46.90
2023-01-17T04:12:18.825Z,43.50
2023-01-17T04:14:46.095Z,44.50
2023-01-17T04:17:14.501Z,43.40
2023-01-17T04:19:41.758Z,50.20
2023-01-17T04:22:09.010Z,52.00
2023-01-17T04:24:36.346Z,50.90
2023-01-17T04:27:05.455Z,50.70
2023-01-17T04:29:32.786Z,50.40
2023-01-17T04:31:59.934Z,50.80
2023-01-17T04:34:27.282Z,51.00
2023-01-17T04:36:54.525Z,52.40
2023-01-17T04:39:21.693Z,48.60
2023-01-17T04:41:48.874Z,47.80
2023-01-17T04:44:16.065Z,47.50
2023-01-17T04:46:43.224Z,50.30
2023-01-17T04:49:10.527Z,38.90
2023-01-17T04:51:37.679Z,45.50
2023-01-17T04:54:04.872Z,48.10
2023-01-17T04:56:32.060Z,48.00
2023-01-17T04:58:59.463Z,44.30
2023-01-17T05:01:45.160Z,41.90
2023-01-17T05:04:12.317Z,45.70
2023-01-17T05:06:39.541Z,47.10
2023-01-17T05:09:07.191Z,53.00
2023-01-17T05:11:34.382Z,52.70
2023-01-17T05:14:01.548Z,54.30
2023-01-17T05:16:28.740Z,52.50
2023-01-17T05:18:55.889Z,46.30
2023-01-17T05:21:23.451Z,50.00
2023-01-17T05:23:50.873Z,47.70
2023-01-17T05:26:18.067Z,50.00
2023-01-17T05:28:45.337Z,51.50
2023-01-17T05:31:12.524Z,51.80
2023-01-17T05:33:39.711Z,49.10
2023-01-17T05:36:07.345Z,49.40
2023-01-17T05:38:34.557Z,48.80
2023-01-17T05:41:02.313Z,46.10
2023-01-17T05:43:29.445Z,46.00
2023-01-17T05:45:56.707Z,45.70
2023-01-17T05:48:23.829Z,46.50
2023-01-17T05:50:52.464Z,50.80
2023-01-17T05:53:19.565Z,48.10
2023-01-17T05:55:47.781Z,50.50
2023-01-17T05:58:17.731Z,50.10
2023-01-17T06:00:45.458Z,52.80
2023-01-17T06:03:13.071Z,57.20
2023-01-17T06:05:40.403Z,57.70
2023-01-17T06:08:07.785Z,60.40
2023-01-17T06:10:35.102Z,61.00
2023-01-17T06:13:08.044Z,61.00
2023-01-17T06:15:37.298Z,60.00
2023-01-17T06:18:09.936Z,57.20
2023-01-17T06:20:39.574Z,54.20
2023-01-17T06:23:10.882Z,53.20
2023-01-17T06:25:46.485Z,50.70
2023-01-17T06:28:18.861Z,49.30
2023-01-17T06:30:46.222Z,47.90
2023-01-17T06:33:13.824Z,51.60
2023-01-17T06:35:47.197Z,47.00
2023-01-17T06:38:14.843Z,49.10
2023-01-17T06:40:42.127Z,50.30
2023-01-17T06:43:09.317Z,52.40
2023-01-17T06:45:36.660Z,53.70
2023-01-17T06:48:05.529Z,53.50
2023-01-17T06:50:34.141Z,54.70
2023-01-17T06:53:03.723Z,55.10
2023-01-17T06:55:33.740Z,55.50
2023-01-17T06:58:02.874Z,53.90
2023-01-17T07:00:31.883Z,55.20
2023-01-17T07:02:59.160Z,57.20
2023-01-17T07:05:28.481Z,55.30
2023-01-17T07:07:55.965Z,54.00
2023-01-17T07:10:23.681Z,55.30
2023-01-17T07:12:51.478Z,57.50
2023-01-17T07:15:18.735Z,60.00
2023-01-17T07:17:45.906Z,61.00
2023-01-17T07:20:13.597Z,59.60
2023-01-17T07:22:45.066Z,62.10
2023-01-17T07:25:12.719Z,61.60
2023-01-17T07:27:39.886Z,58.60
2023-01-17T07:30:07.661Z,55.80
2023-01-17T07:32:35.382Z,56.70
2023-01-17T07:35:02.491Z,57.40
2023-01-17T07:37:29.695Z,53.30
2023-01-17T07:39:56.953Z,53.20
2023-01-17T07:42:24.489Z,51.00
2023-01-17T07:44:51.647Z,49.30
2023-01-17T07:47:19.984Z,46.40
2023-01-17T07:49:47.265Z,43.30
2023-01-17T07:52:16.298Z,43.20
2023-01-17T07:54:44.639Z,44.90
2023-01-17T07:57:12.578Z,47.20
2023-01-17T07:59:39.775Z,44.40
2023-01-17T08:02:19.317Z,44.50
2023-01-17T08:04:47.080Z,37.20
2023-01-17T08:07:14.753Z,35.80
2023-01-17T08:09:43.819Z,28.90
2023-01-17T08:12:11.024Z,28.10
2023-01-17T08:14:38.148Z,26.80
2023-01-17T08:17:06.598Z,24.60
2023-01-17T08:19:33.823Z,23.50
2023-01-17T08:22:01.002Z,21.80
2023-01-17T08:24:28.248Z,19.60
2023-01-17T08:26:56.314Z,18.50
2023-01-17T08:29:24.314Z,16.70
2023-01-17T08:31:52.174Z,15.40
2023-01-17T08:34:19.472Z,15.60
2023-01-17T08:36:47.960Z,16.10
2023-01-17T08:39:15.156Z,14.30
2023-01-17T08:41:42.327Z,12.50
2023-01-17T08:44:09.528Z,12.10
2023-01-17T08:46:41.316Z,11.70
2023-01-17T08:49:11.952Z,12.30
2023-01-17T08:51:39.726Z,11.70
2023-01-17T08:54:07.155Z,12.70
2023-01-17T08:56:35.005Z,13.00
2023-01-17T08:59:03.116Z,12.70
2023-01-17T09:01:30.641Z,11.80
2023-01-17T09:03:57.843Z,11.80
2023-01-17T09:06:25.053Z,11.30
2023-01-17T09:08:54.667Z,11.60
2023-01-17T09:11:21.957Z,12.90
2023-01-17T09:13:49.114Z,11.10
2023-01-17T09:16:16.284Z,10.60
2023-01-17T09:18:43.424Z,9.60
2023-01-17T09:21:16.692Z,10.90
2023-01-17T09:23:44.794Z,10.40
2023-01-17T09:26:30.786Z,10.80
2023-01-17T09:28:58.734Z,12.30
2023-01-17T09:31:27.297Z,11.40
2023-01-17T09:33:55.959Z,13.90
2023-01-17T09:36:23.994Z,26.20
2023-01-17T09:38:59.039Z,11.10
2023-01-17T09:41:32.481Z,10.30
2023-01-17T09:44:20.329Z,10.40
2023-01-17T09:46:50.344Z,17.20
2023-01-17T09:49:41.799Z,11.50
2023-01-17T09:52:18.369Z,9.50
2023-01-17T09:54:48.110Z,9.80
2023-01-17T09:57:29.037Z,10.30
2023-01-17T10:00:14.449Z,9.90
2023-01-17T10:02:53.919Z,10.20
2023-01-17T10:06:11.712Z,11.70
2023-01-17T10:09:00.627Z,10.40
2023-01-17T10:12:18.987Z,10.30
2023-01-17T10:14:48.736Z,10.10
2023-01-17T10:18:03.775Z,11.10
2023-01-17T10:20:54.177Z,10.20
2023-01-17T10:23:34.003Z,10.90
2023-01-17T10:26:04.482Z,11.30
2023-01-17T10:28:51.110Z,12.00
2023-01-17T10:31:27.480Z,12.90
2023-01-17T10:34:11.665Z,11.90
2023-01-17T10:36:54.141Z,10.80
2023-01-17T10:39:28.317Z,10.20
2023-01-17T10:42:07.266Z,10.80
2023-01-17T10:44:47.800Z,9.20
2023-01-17T10:47:23.663Z,9.40
2023-01-17T10:49:58.442Z,7.20
2023-01-17T10:52:57.900Z,7.20
2023-01-17T10:55:43.740Z,7.60
2023-01-17T10:58:14.425Z,7.10
2023-01-17T11:00:48.470Z,9.40
2023-01-17T11:03:20.901Z,8.70
2023-01-17T11:06:21.126Z,8.40
2023-01-17T11:08:58.301Z,8.20
2023-01-17T11:11:32.014Z,8.20
2023-01-17T11:14:03.589Z,7.60
2023-01-17T11:16:31.991Z,8.20
2023-01-17T11:19:23.221Z,7.20
2023-01-17T11:22:04.873Z,6.80
2023-01-17T11:24:36.509Z,7.60
2023-01-17T11:27:22.791Z,8.20
2023-01-17T11:30:16.361Z,7.80
2023-01-17T11:33:26.632Z,5.90
2023-01-17T11:35:53.831Z,6.10
2023-01-17T11:38:24.497Z,6.00
2023-01-17T11:41:12.349Z,7.30
2023-01-17T11:43:55.099Z,7.30
2023-01-17T11:46:23.949Z,8.60
2023-01-17T11:48:56.052Z,9.50
2023-01-17T11:51:42.014Z,11.40
2023-01-17T11:54:19.669Z,9.70
2023-01-17T11:56:46.889Z,10.70
2023-01-17T11:59:24.639Z,13.00
2023-01-17T12:02:19.574Z,13.30
2023-01-17T12:05:23.559Z,11.80
2023-01-17T12:08:09.190Z,13.90
2023-01-17T12:10:49.601Z,15.00
2023-01-17T12:14:01.323Z,14.70
2023-01-17T12:16:50.320Z,13.40
2023-01-17T12:19:45.691Z,13.40
2023-01-17T12:22:21.801Z,13.40
2023-01-17T12:25:11.999Z,15.90
2023-01-17T12:28:11.450Z,17.30
2023-01-17T12:30:47.647Z,15.60
2023-01-17T12:33:33.543Z,15.40
2023-01-17T12:36:17.584Z,14.90
2023-01-17T12:38:48.125Z,13.90
2023-01-17T12:41:24.382Z,14.10
2023-01-17T12:43:56.472Z,15.90
2023-01-17T12:46:29.371Z,17.20
2023-01-17T12:49:26.038Z,29.60
2023-01-17T12:52:03.389Z,14.20
2023-01-17T12:54:47.109Z,13.50
2023-01-17T12:57:38.199Z,13.40
2023-01-17T13:00:08.239Z,13.20
2023-01-17T13:02:53.170Z,13.00
2023-01-17T13:05:23.793Z,12.80
2023-01-17T13:07:59.821Z,13.50
2023-01-17T13:10:38.916Z,13.30
2023-01-17T13:13:22.519Z,11.40
2023-01-17T13:15:52.541Z,12.50
2023-01-17T13:18:25.732Z,12.90
2023-01-17T13:21:19.660Z,13.40
2023-01-17T13:24:16.977Z,14.40
2023-01-17T13:26:56.533Z,15.70
2023-01-17T13:29:58.067Z,18.10
2023-01-17T13:32:37.287Z,18.10
2023-01-17T13:35:41.996Z,16.90
2023-01-17T13:38:27.191Z,17.00
2023-01-17T13:41:38.734Z,17.90
2023-01-17T13:44:21.544Z,18.10
2023-01-17T13:47:08.148Z,18.40
2023-01-17T13:49:40.984Z,17.20
2023-01-17T13:52:20.307Z,15.60
2023-01-17T13:54:53.051Z,15.10
2023-01-17T13:57:29.332Z,14.20
2023-01-17T13:59:59.297Z,14.40
2023-01-17T14:02:32.616Z,14.60
2023-01-17T14:05:21.361Z,16.30
2023-01-17T14:07:55.862Z,16.50
2023-01-17T14:10:37.928Z,17.20
2023-01-17T14:13:24.737Z,16.00
2023-01-17T14:15:52.441Z,16.90
2023-01-17T14:18:46.089Z,17.60
2023-01-17T14:21:33.641Z,18.70
2023-01-17T14:24:18.144Z,16.70
2023-01-17T14:27:19.680Z,18.70
2023-01-17T14:29:52.408Z,19.80
2023-01-17T14:32:23.404Z,20.20
2023-01-17T14:34:53.153Z,19.60
2023-01-17T14:37:32.768Z,18.60
2023-01-17T14:40:00.837Z,20.20
2023-01-17T14:42:30.606Z,22.20
2023-01-17T14:45:07.754Z,22.10
2023-01-17T14:47:39.415Z,24.70
2023-01-17T14:50:29.317Z,25.60
2023-01-17T14:53:10.068Z,26.90
2023-01-17T14:55:38.333Z,27.40
2023-01-17T14:58:05.745Z,25.60
2023-01-17T15:00:39.326Z,26.40
2023-01-17T15:03:12.115Z,27.10
2023-01-17T15:05:46.927Z,25.80
2023-01-17T15:08:16.160Z,24.50
2023-01-17T15:11:05.794Z,25.30
2023-01-17T15:13:44.417Z,24.10
2023-01-17T15:16:34.124Z,26.40
2023-01-17T15:19:02.110Z,26.40
2023-01-17T15:21:40.696Z,27.10
2023-01-17T15:24:26.359Z,28.70
2023-01-17T15:26:54.639Z,28.10
2023-01-17T15:29:26.754Z,31.80
2023-01-17T15:32:02.341Z,35.90
2023-01-17T15:34:39.641Z,39.50
2023-01-17T15:37:21.446Z,40.30
2023-01-17T15:39:48.761Z,38.10
2023-01-17T15:42:23.749Z,39.70
2023-01-17T15:44:56.943Z,39.90
2023-01-17T15:47:32.116Z,36.80
2023-01-17T15:50:00.719Z,37.50
2023-01-17T15:52:28.628Z,35.90
2023-01-17T15:55:12.519Z,54.80
2023-01-17T15:57:40.254Z,53.50
2023-01-17T16:00:08.745Z,33.80
2023-01-17T16:02:55.864Z,32.20
2023-01-17T16:05:31.020Z,30.60
2023-01-17T16:08:04.659Z,34.70
2023-01-17T16:10:35.721Z,37.00
2023-01-17T16:13:04.817Z,34.80
2023-01-17T16:15:32.361Z,35.10
2023-01-17T16:18:15.479Z,34.50
2023-01-17T16:21:08.041Z,38.00
2023-01-17T16:23:35.164Z,40.00
2023-01-17T16:26:02.333Z,43.70
2023-01-17T16:28:29.508Z,44.90
2023-01-17T16:30:56.692Z,46.10
2023-01-17T16:33:23.880Z,42.20
2023-01-17T16:35:54.006Z,40.80
2023-01-17T16:38:21.212Z,38.30
2023-01-17T16:40:48.853Z,37.70
2023-01-17T16:43:18.643Z,38.00
2023-01-17T16:45:48.511Z,36.70
2023-01-17T16:48:17.717Z,37.60
2023-01-17T16:50:52.315Z,34.70
2023-01-17T16:53:24.343Z,34.30
2023-01-17T16:55:56.277Z,35.40
2023-01-17T16:58:23.654Z,39.30
2023-01-17T17:00:50.834Z,38.30
2023-01-17T17:03:20.120Z,37.50
2023-01-17T17:06:00.104Z,38.30
2023-01-17T17:08:29.483Z,34.10
2023-01-17T17:11:07.887Z,37.20
2023-01-17T17:13:37.874Z,36.90
2023-01-17T17:16:17.656Z,38.80
2023-01-17T17:18:46.991Z,36.50
2023-01-17T17:21:14.770Z,34.90
2023-01-17T17:23:41.990Z,35.60
2023-01-17T17:26:09.196Z,34.80
2023-01-17T17:28:36.663Z,37.00
2023-01-17T17:31:12.803Z,36.80
2023-01-17T17:33:40.164Z,43.00
2023-01-17T17:36:10.250Z,46.90
2023-01-17T17:38:51.057Z,72.20
2023-01-17T17:41:24.678Z,57.00
2023-01-17T17:43:52.412Z,59.30
2023-01-17T17:46:24.510Z,58.60
2023-01-17T17:48:51.729Z,53.90
2023-01-17T17:51:39.565Z,53.60
2023-01-17T17:54:12.303Z,61.60
2023-01-17T17:56:40.493Z,50.50
2023-01-17T17:59:09.143Z,49.60
2023-01-17T18:01:40.952Z,47.60
2023-01-17T18:04:08.688Z,45.60
2023-01-17T18:06:36.203Z,43.60
2023-01-17T18:09:03.917Z,45.80
2023-01-17T18:11:32.121Z,45.40
2023-01-17T18:14:01.705Z,46.80
2023-01-17T18:16:31.868Z,49.10
2023-01-17T18:18:59.556Z,50.70
2023-01-17T18:21:32.250Z,52.40
2023-01-17T18:24:02.652Z,49.20
2023-01-17T18:26:35.433Z,48.90
2023-01-17T18:29:04.375Z,50.60
2023-01-17T18:31:32.051Z,50.70
2023-01-17T18:34:03.234Z,48.60
2023-01-17T18:36:31.094Z,51.30
2023-01-17T18:38:58.714Z,54.40
2023-01-17T18:41:28.446Z,58.50
2023-01-17T18:43:56.241Z,62.20
2023-01-17T18:46:25.853Z,60.10
2023-01-17T18:48:56.713Z,57.30
2023-01-17T18:51:23.954Z,58.40
2023-01-17T18:53:53.043Z,54.50
2023-01-17T18:56:21.705Z,54.40
2023-01-17T18:58:50.155Z,50.20
2023-01-17T19:01:23.709Z,50.20
2023-01-17T19:03:53.457Z,47.10
2023-01-17T19:06:27.346Z,46.70
2023-01-17T19:08:54.972Z,46.30
2023-01-17T19:11:24.128Z,45.50
2023-01-17T19:13:52.499Z,45.40
2023-01-17T19:16:26.538Z,65.50
2023-01-17T19:18:55.763Z,45.70
2023-01-17T19:21:27.658Z,50.50
2023-01-17T19:23:58.050Z,49.30
2023-01-17T19:26:27.437Z,72.80
2023-01-17T19:28:56.830Z,57.70
2023-01-17T19:31:29.548Z,55.20
2023-01-17T19:33:59.291Z,52.50
2023-01-17T19:36:33.967Z,52.10
2023-01-17T19:39:05.719Z,54.90
2023-01-17T19:41:41.171Z,56.00
2023-01-17T19:44:11.469Z,56.40
2023-01-17T19:46:39.100Z,55.80
2023-01-17T19:49:08.818Z,56.30
2023-01-17T19:51:36.529Z,55.90
2023-01-17T19:54:06.450Z,56.20
2023-01-17T19:56:33.928Z,52.50
2023-01-17T19:59:01.977Z,53.60
2023-01-17T20:01:31.812Z,52.50
2023-01-17T20:04:00.982Z,55.80
2023-01-17T20:06:31.158Z,57.60
2023-01-17T20:08:58.530Z,57.40
2023-01-17T20:11:27.217Z,55.30
2023-01-17T20:13:56.502Z,52.60
2023-01-17T20:16:25.389Z,51.40
2023-01-17T20:18:53.122Z,54.00
2023-01-17T20:21:23.106Z,49.50
2023-01-17T20:23:51.476Z,48.30
2023-01-17T20:26:31.028Z,50.10
2023-01-17T20:28:58.281Z,53.20
2023-01-17T20:31:25.912Z,58.00
2023-01-17T20:33:55.013Z,61.40
2023-01-17T20:36:24.841Z,64.90
2023-01-17T20:38:53.352Z,68.60
2023-01-17T20:41:31.243Z,75.60
2023-01-17T20:44:00.430Z,82.80
2023-01-17T20:46:31.098Z,83.50
2023-01-17T20:49:00.567Z,76.30
2023-01-17T20:51:29.597Z,77.40
2023-01-17T20:54:02.679Z,79.10
2023-01-17T20:56:34.500Z,71.20
2023-01-17T20:59:07.629Z,65.60
2023-01-17T21:01:38.484Z,63.00
2023-01-17T21:04:10.130Z,61.20
2023-01-17T21:06:39.778Z,55.90
2023-01-17T21:09:08.874Z,53.20
2023-01-17T21:11:37.013Z,55.30
2023-01-17T21:14:07.433Z,54.70
2023-01-17T21:16:35.091Z,57.30
2023-01-17T21:19:02.702Z,58.40
2023-01-17T21:21:30.096Z,60.80
2023-01-17T21:23:59.236Z,60.30
2023-01-17T21:26:28.399Z,61.90
2023-01-17T21:28:55.823Z,62.60
2023-01-17T21:31:27.074Z,62.40
2023-01-17T21:33:59.535Z,62.40
2023-01-17T21:36:33.293Z,62.10
2023-01-17T21:39:04.892Z,60.90
2023-01-17T21:41:37.964Z,63.10
2023-01-17T21:44:12.822Z,63.50
2023-01-17T21:46:40.878Z,60.60
2023-01-17T21:49:11.813Z,58.70
2023-01-17T21:51:55.384Z,57.40
2023-01-17T21:54:45.267Z,60.70
2023-01-17T21:57:33.233Z,62.20
2023-01-17T22:00:00.493Z,61.70
2023-01-17T22:02:27.676Z,61.00
2023-01-17T22:04:56.241Z,63.70
2023-01-17T22:07:26.970Z,61.50
2023-01-17T22:09:54.627Z,59.50
2023-01-17T22:12:21.731Z,59.60
2023-01-17T22:14:48.868Z,84.90
2023-01-17T22:17:16.111Z,66.40
2023-01-17T22:19:43.298Z,65.00
2023-01-17T22:22:10.446Z,61.20
2023-01-17T22:24:37.703Z,60.00
2023-01-17T22:27:04.948Z,60.30
2023-01-17T22:29:34.069Z,62.80
2023-01-17T22:32:01.238Z,65.40
2023-01-17T22:34:28.394Z,64.50
2023-01-17T22:36:55.608Z,66.70
2023-01-17T22:39:22.796Z,63.40
2023-01-17T22:41:50.035Z,61.30
2023-01-17T22:44:17.202Z,58.70
2023-01-17T22:46:44.413Z,60.70
2023-01-17T22:49:13.358Z,62.80
2023-01-17T22:51:40.557Z,63.70
2023-01-17T22:54:07.726Z,64.70
2023-01-17T22:56:34.981Z,68.20
2023-01-17T22:59:02.436Z,70.20
2023-01-17T23:01:32.559Z,71.30
2023-01-17T23:04:02.301Z,67.40
2023-01-17T23:06:34.831Z,67.50
2023-01-17T23:09:08.493Z,65.90
2023-01-17T23:11:41.233Z,68.40
2023-01-17T23:14:15.816Z,63.80
2023-01-17T23:17:09.145Z,63.60
2023-01-17T23:19:43.585Z,64.40
2023-01-17T23:22:21.752Z,64.10
2023-01-17T23:24:51.840Z,69.60
2023-01-17T23:27:42.043Z,64.90
2023-01-17T23:30:34.864Z,60.30
2023-01-17T23:33:13.241Z,61.40
2023-01-17T23:35:43.150Z,64.30
2023-01-17T23:38:26.231Z,67.20
2023-01-17T23:41:17.295Z,69.40
2023-01-17T23:43:44.704Z,72.80
2023-01-17T23:46:12.861Z,76.10
2023-01-17T23:48:40.094Z,79.80
2023-01-17T23:51:08.309Z,85.30
2023-01-17T23:53:37.403Z,90.60
2023-01-17T23:56:11.176Z,91.60
2023-01-17T23:58:38.413Z,90.00
